Time;durP1;ratioP1;P1;durP2;ratioP2;P2;SDS_P1;SDS_P2;PMS_P1;PMS_P2;Temp;Humidity;BMP_temperature;BMP_pressure;BME280_temperature;BME280_humidity;BME280_pressure;Samples;Min_cycle;Max_cycle;Signal;HPM_P1;HPM_P2
2024/02/25 00:01:25;;;;;;;2.93;1.60;;;;;;;2.91;76.69;94563.00;5006606;28;20730;-77
2024/02/25 00:03:51;;;;;;;2.00;1.80;;;;;;;2.87;76.95;94572.69;5000446;28;20207;-78
2024/02/25 00:06:16;;;;;;;3.20;1.90;;;;;;;2.86;77.11;94565.94;4997555;28;20561;-78
2024/02/25 00:08:41;;;;;;;1.67;1.40;;;;;;;2.86;77.16;94571.06;5019404;28;20664;-78
2024/02/25 00:11:07;;;;;;;2.17;1.60;;;;;;;2.73;78.16;94573.00;5018217;28;20190;-78
2024/02/25 00:13:32;;;;;;;1.97;1.63;;;;;;;2.79;77.59;94559.69;5016390;28;20211;-78
2024/02/25 00:15:57;;;;;;;2.67;1.97;;;;;;;2.87;77.14;94556.50;5012366;28;20669;-78
2024/02/25 00:18:23;;;;;;;1.70;1.40;;;;;;;2.81;77.57;94565.50;5017618;28;20225;-78
2024/02/25 00:20:48;;;;;;;1.73;1.50;;;;;;;2.80;77.69;94569.81;5004123;28;20202;-78
2024/02/25 00:23:13;;;;;;;2.80;1.67;;;;;;;2.80;78.08;94566.44;5018387;28;20215;-78
2024/02/25 00:25:39;;;;;;;1.93;1.53;;;;;;;2.78;78.68;94568.31;5004010;28;20195;-77
2024/02/25 00:28:04;;;;;;;2.57;1.50;;;;;;;2.84;77.88;94560.94;5001913;28;20183;-78
2024/02/25 00:30:30;;;;;;;2.07;1.63;;;;;;;2.90;77.86;94562.19;5016679;28;20187;-78
2024/02/25 00:32:55;;;;;;;1.50;1.30;;;;;;;2.86;77.92;94558.25;5013389;28;20187;-78
2024/02/25 00:35:21;;;;;;;1.67;1.27;;;;;;;2.91;77.68;94566.38;5020479;28;20250;-77
2024/02/25 00:37:46;;;;;;;2.73;1.33;;;;;;;2.86;77.25;94560.81;5007610;28;20673;-78
2024/02/25 00:40:13;;;;;;;2.03;1.23;;;;;;;2.87;77.56;94557.31;5016929;28;20201;-78
2024/02/25 00:42:38;;;;;;;1.60;1.50;;;;;;;2.85;78.26;94556.63;5011500;28;20253;-77
2024/02/25 00:45:04;;;;;;;2.17;1.43;;;;;;;2.82;78.09;94557.69;5014536;28;20206;-78
2024/02/25 00:47:29;;;;;;;3.33;1.70;;;;;;;2.87;77.94;94557.31;5023202;28;20306;-78
2024/02/25 00:49:55;;;;;;;2.00;1.20;;;;;;;2.90;77.60;94558.81;5006493;28;20258;-78
2024/02/25 00:52:21;;;;;;;2.87;1.60;;;;;;;2.81;78.00;94553.50;5024288;28;20219;-78
2024/02/25 00:54:47;;;;;;;3.57;1.60;;;;;;;2.79;78.54;94555.38;5021961;28;20297;-77
2024/02/25 00:57:13;;;;;;;2.00;1.80;;;;;;;2.78;79.00;94553.75;5019512;28;20194;-78
2024/02/25 00:59:39;;;;;;;2.37;1.60;;;;;;;2.82;79.19;94559.44;5005765;28;20191;-77
2024/02/25 01:02:04;;;;;;;2.20;1.67;;;;;;;2.76;79.44;94555.63;5022759;28;20236;-78
2024/02/25 01:04:29;;;;;;;1.40;1.30;;;;;;;2.92;78.63;94559.53;5021510;28;20604;-78
2024/02/25 01:06:55;;;;;;;3.00;1.50;;;;;;;2.92;78.64;94546.69;5005704;28;20272;-78
2024/02/25 01:09:20;;;;;;;1.50;1.40;;;;;;;2.93;78.74;94551.69;5019938;28;20207;-78
2024/02/25 01:11:45;;;;;;;3.20;1.27;;;;;;;2.90;78.66;94551.94;5021928;28;20209;-76
2024/02/25 01:14:12;;;;;;;6.57;2.03;;;;;;;2.93;78.00;94548.31;5001472;28;20308;-77
2024/02/25 01:16:40;;;;;;;1.90;1.40;;;;;;;2.90;78.62;94531.41;5021749;28;20180;-77
2024/02/25 01:19:06;;;;;;;1.50;1.40;;;;;;;2.84;78.99;94539.63;5014128;28;20238;-77
2024/02/25 01:21:31;;;;;;;1.90;1.67;;;;;;;2.83;78.84;94536.25;5007495;28;20555;-77
2024/02/25 01:23:56;;;;;;;2.10;1.73;;;;;;;2.89;78.70;94528.97;5019314;28;20211;-78
2024/02/25 01:26:21;;;;;;;1.90;1.40;;;;;;;2.86;78.41;94534.38;5009559;28;20256;-78
2024/02/25 01:28:47;;;;;;;1.70;1.40;;;;;;;2.79;78.73;94534.06;5003879;28;20202;-78
2024/02/25 01:31:12;;;;;;;3.23;1.87;;;;;;;2.76;78.89;94529.19;5020185;28;20191;-78
2024/02/25 01:33:38;;;;;;;3.10;1.60;;;;;;;2.74;79.04;94536.16;5001769;28;20219;-78
2024/02/25 01:36:03;;;;;;;2.60;1.53;;;;;;;2.59;79.39;94534.88;5006629;28;20678;-77
2024/02/25 01:38:29;;;;;;;2.93;2.00;;;;;;;2.72;79.50;94532.91;5020061;28;20205;-78
2024/02/25 01:40:54;;;;;;;2.47;1.60;;;;;;;2.69;79.58;94525.50;5015592;28;20210;-78
2024/02/25 01:43:19;;;;;;;1.80;1.47;;;;;;;2.67;79.40;94529.94;5008306;28;20641;-78
2024/02/25 01:45:45;;;;;;;3.73;2.00;;;;;;;2.72;78.86;94531.16;5021809;28;20194;-77
2024/02/25 01:48:11;;;;;;;2.70;1.97;;;;;;;2.70;79.12;94525.34;5012244;28;20202;-78
2024/02/25 01:50:37;;;;;;;2.90;1.80;;;;;;;2.59;79.13;94522.84;5000590;28;20209;-78
2024/02/25 01:53:02;;;;;;;2.60;2.40;;;;;;;2.63;79.57;94524.22;5009730;28;20187;-78
2024/02/25 01:55:33;;;;;;;4.90;2.10;;;;;;;2.66;79.12;94521.44;5018458;28;20314;-78
2024/02/25 01:57:59;;;;;;;4.27;2.07;;;;;;;2.60;79.51;94518.53;5007367;28;20197;-77
2024/02/25 02:00:27;;;;;;;3.50;2.03;;;;;;;2.57;79.61;94513.69;5019980;28;20190;-78
2024/02/25 02:02:52;;;;;;;2.13;1.80;;;;;;;2.58;79.30;94513.56;5021247;28;20199;-78
2024/02/25 02:05:17;;;;;;;2.70;1.97;;;;;;;2.45;80.19;94512.91;5017467;28;20213;-77
2024/02/25 02:07:47;;;;;;;2.43;1.97;;;;;;;2.30;80.38;94509.00;5008992;28;20186;-78
2024/02/25 02:10:12;;;;;;;2.77;2.10;;;;;;;2.35;80.53;94502.56;5019820;28;20274;-77
2024/02/25 02:12:42;;;;;;;3.60;2.00;;;;;;;2.40;80.13;94500.47;5020469;28;20219;-78
2024/02/25 02:15:08;;;;;;;2.43;1.90;;;;;;;2.36;80.55;94504.19;5015699;28;20344;-77
2024/02/25 02:17:34;;;;;;;2.00;1.80;;;;;;;2.33;80.86;94493.41;5021476;28;20187;-78
2024/02/25 02:20:00;;;;;;;2.43;1.80;;;;;;;2.33;80.55;94491.66;4988880;28;20194;-77
2024/02/25 02:22:26;;;;;;;1.53;1.43;;;;;;;2.23;80.68;94489.00;5002399;28;20253;-77
2024/02/25 02:24:51;;;;;;;2.13;1.93;;;;;;;2.25;81.11;94488.88;5015452;28;20677;-77
2024/02/25 02:27:17;;;;;;;2.83;2.20;;;;;;;2.16;81.09;94476.81;5008286;28;20191;-77
2024/02/25 02:29:42;;;;;;;2.80;2.07;;;;;;;2.18;81.66;94477.50;5020755;28;20197;-77
2024/02/25 02:32:08;;;;;;;2.93;2.20;;;;;;;2.20;81.44;94476.44;5015343;28;20190;-77
2024/02/25 02:34:35;;;;;;;3.27;2.00;;;;;;;2.11;81.50;94482.28;5008167;28;20223;-78
2024/02/25 02:37:00;;;;;;;3.63;2.30;;;;;;;2.25;80.75;94476.06;5017264;28;20190;-78
2024/02/25 02:39:26;;;;;;;2.77;2.33;;;;;;;2.16;81.27;94464.81;5021033;28;20195;-77
2024/02/25 02:41:52;;;;;;;2.73;2.13;;;;;;;2.18;80.72;94468.06;5018439;28;20290;-77
2024/02/25 02:44:17;;;;;;;4.73;2.10;;;;;;;2.25;81.15;94473.53;5017881;28;20218;-77
2024/02/25 02:46:43;;;;;;;3.33;2.30;;;;;;;2.24;80.91;94466.78;5007718;28;20807;-77
2024/02/25 02:49:08;;;;;;;2.37;2.10;;;;;;;2.20;81.50;94461.06;5016974;28;20189;-78
2024/02/25 02:51:33;;;;;;;2.43;2.13;;;;;;;2.24;81.33;94464.22;5005140;28;20241;-78
2024/02/25 02:53:59;;;;;;;2.80;2.37;;;;;;;2.17;81.36;94470.75;5019287;28;20252;-78
2024/02/25 02:56:24;;;;;;;4.03;2.57;;;;;;;2.12;81.45;94460.91;5018452;28;20598;-77
2024/02/25 02:58:49;;;;;;;3.07;2.23;;;;;;;2.04;82.19;94449.63;5017749;28;20191;-78
2024/02/25 03:01:15;;;;;;;1.90;1.80;;;;;;;2.06;81.69;94458.00;5017655;28;20194;-77
2024/02/25 03:03:41;;;;;;;4.13;2.53;;;;;;;2.11;81.54;94466.13;5020810;28;20202;-77
2024/02/25 03:06:06;;;;;;;3.50;2.10;;;;;;;2.02;82.06;94459.16;5014870;28;20194;-77
2024/02/25 03:08:32;;;;;;;3.53;2.23;;;;;;;1.98;82.65;94459.41;5006835;28;20644;-77
2024/02/25 03:10:58;;;;;;;2.77;2.33;;;;;;;2.16;81.38;94448.66;5016550;28;20214;-78
2024/02/25 03:13:23;;;;;;;2.80;2.43;;;;;;;2.20;80.92;94455.13;5019624;28;20676;-78
2024/02/25 03:15:49;;;;;;;3.63;2.40;;;;;;;2.06;81.75;94460.56;4998229;28;20632;-78
2024/02/25 03:18:14;;;;;;;4.63;2.10;;;;;;;2.07;81.75;94454.50;5021169;28;20241;-78
2024/02/25 03:20:41;;;;;;;2.93;2.23;;;;;;;2.08;81.56;94445.88;5018262;28;20195;-77
2024/02/25 03:23:07;;;;;;;3.57;2.63;;;;;;;2.12;81.50;94447.25;5016709;28;20644;-77
2024/02/25 03:25:32;;;;;;;2.37;2.00;;;;;;;2.05;81.25;94446.13;5019874;28;20198;-77
2024/02/25 03:27:57;;;;;;;3.00;2.43;;;;;;;2.08;82.16;94446.69;5007477;28;20230;-78
2024/02/25 03:30:23;;;;;;;2.30;2.00;;;;;;;2.07;81.33;94449.38;5017362;28;20193;-77
2024/02/25 03:32:48;;;;;;;2.33;2.10;;;;;;;2.10;81.17;94444.00;5017213;28;20229;-77
2024/02/25 03:35:13;;;;;;;3.30;2.20;;;;;;;2.06;81.80;94446.00;5019499;28;20253;-78
2024/02/25 03:37:39;;;;;;;2.57;2.00;;;;;;;2.10;80.94;94444.81;5008422;28;20194;-77
2024/02/25 03:40:05;;;;;;;3.40;2.57;;;;;;;2.07;81.80;94444.25;5015829;28;20207;-78
2024/02/25 03:42:30;;;;;;;2.93;2.50;;;;;;;2.08;81.62;94448.44;5002224;28;20198;-78
2024/02/25 03:44:56;;;;;;;2.57;2.17;;;;;;;2.04;81.98;94453.00;5019488;28;21361;-78
2024/02/25 03:47:23;;;;;;;5.23;2.30;;;;;;;2.11;80.75;94451.56;5019470;28;20187;-76
2024/02/25 03:49:48;;;;;;;4.03;2.23;;;;;;;2.05;81.38;94446.94;5001262;28;20210;-78
2024/02/25 03:52:13;;;;;;;2.60;2.40;;;;;;;2.13;80.95;94448.91;4999655;28;20190;-78
2024/02/25 03:54:39;;;;;;;3.53;1.97;;;;;;;2.02;81.34;94452.31;5018666;28;20210;-78
2024/02/25 03:57:04;;;;;;;4.87;2.33;;;;;;;2.06;81.62;94450.31;5011840;28;20194;-77
2024/02/25 03:59:29;;;;;;;4.10;2.40;;;;;;;2.08;81.03;94451.00;5016953;28;20284;-77
2024/02/25 04:01:55;;;;;;;4.13;2.40;;;;;;;2.01;81.36;94449.88;5014971;28;20266;-77
2024/02/25 04:04:20;;;;;;;5.57;2.50;;;;;;;1.98;81.82;94444.06;5009996;28;20207;-78
2024/02/25 04:06:45;;;;;;;3.03;2.13;;;;;;;2.04;80.34;94441.97;4999383;28;20226;-77
2024/02/25 04:09:11;;;;;;;3.30;2.40;;;;;;;1.97;81.16;94445.00;5015784;28;20199;-77
2024/02/25 04:11:37;;;;;;;4.07;2.27;;;;;;;1.98;81.64;94445.81;5014514;28;20774;-78
2024/02/25 04:14:02;;;;;;;3.40;2.73;;;;;;;2.04;81.14;94445.31;5024771;28;20222;-77
2024/02/25 04:16:28;;;;;;;2.53;2.30;;;;;;;1.93;81.30;94433.38;5013817;28;20195;-78
2024/02/25 04:18:53;;;;;;;2.80;2.47;;;;;;;2.03;81.35;94433.44;5007527;28;20225;-78
2024/02/25 04:21:18;;;;;;;3.47;2.67;;;;;;;2.09;80.31;94435.50;5016531;28;20664;-78
2024/02/25 04:23:44;;;;;;;2.30;2.10;;;;;;;2.08;80.46;94435.63;5003258;28;20237;-77
2024/02/25 04:26:09;;;;;;;3.30;2.37;;;;;;;2.04;80.38;94431.72;5014727;28;20179;-78
2024/02/25 04:28:35;;;;;;;2.93;2.63;;;;;;;2.07;80.41;94434.81;5003247;28;20195;-78
2024/02/25 04:31:00;;;;;;;2.83;2.50;;;;;;;2.04;80.81;94437.66;5000432;28;20202;-78
2024/02/25 04:33:25;;;;;;;3.93;2.60;;;;;;;1.99;80.81;94434.63;5017067;28;20324;-77
2024/02/25 04:35:51;;;;;;;2.83;2.40;;;;;;;2.03;80.79;94442.88;5015033;28;20264;-78
2024/02/25 04:38:17;;;;;;;2.60;2.40;;;;;;;2.10;80.11;94439.69;5017979;28;20675;-78
2024/02/25 04:40:42;;;;;;;3.50;2.70;;;;;;;1.92;80.54;94441.97;5021464;28;20221;-78
2024/02/25 04:43:07;;;;;;;2.93;2.60;;;;;;;1.84;81.53;94438.41;5017243;28;20269;-77
2024/02/25 04:45:33;;;;;;;3.00;2.60;;;;;;;1.94;81.08;94442.69;5018309;28;20198;-78
2024/02/25 04:47:58;;;;;;;3.77;2.47;;;;;;;1.98;80.16;94436.38;5016977;28;20641;-78
2024/02/25 04:50:23;;;;;;;3.53;2.50;;;;;;;1.91;80.73;94440.34;5000883;28;20575;-78
2024/02/25 04:52:49;;;;;;;3.60;2.70;;;;;;;1.91;80.80;94431.88;5019279;28;20183;-78
2024/02/25 04:55:14;;;;;;;4.43;2.60;;;;;;;1.86;80.11;94434.81;5017308;28;20707;-78
2024/02/25 04:57:39;;;;;;;3.20;2.53;;;;;;;1.91;80.37;94437.00;5021810;28;20222;-78
2024/02/25 05:00:06;;;;;;;4.70;3.23;;;;;;;1.86;80.72;94439.13;4997909;28;20201;-78
2024/02/25 05:02:31;;;;;;;3.83;2.83;;;;;;;1.88;80.25;94439.81;5009404;28;20210;-78
2024/02/25 05:04:56;;;;;;;2.70;2.50;;;;;;;1.82;80.95;94423.16;5019692;28;20206;-78
2024/02/25 05:07:22;;;;;;;5.13;2.90;;;;;;;1.91;80.80;94425.00;5002269;28;20188;-78
2024/02/25 05:09:47;;;;;;;3.70;2.37;;;;;;;1.89;81.33;94432.00;5002587;28;20198;-78
2024/02/25 05:12:16;;;;;;;3.10;2.50;;;;;;;1.85;81.41;94430.59;5015282;28;20225;-78
2024/02/25 05:14:41;;;;;;;3.97;2.70;;;;;;;1.88;81.36;94429.56;5017707;28;20243;-78
2024/02/25 05:17:07;;;;;;;4.67;2.63;;;;;;;1.97;80.34;94429.63;4998511;28;20199;-78
2024/02/25 05:19:32;;;;;;;3.57;2.00;;;;;;;2.03;80.97;94432.63;5024273;28;20641;-78
2024/02/25 05:21:57;;;;;;;3.47;2.93;;;;;;;1.94;81.09;94429.06;5021744;28;20186;-78
2024/02/25 05:24:23;;;;;;;4.27;2.20;;;;;;;1.84;81.24;94425.59;5020285;28;20602;-78
2024/02/25 05:26:48;;;;;;;3.43;2.30;;;;;;;1.88;81.03;94430.38;5008772;28;20194;-78
2024/02/25 05:29:14;;;;;;;2.13;1.93;;;;;;;1.92;80.31;94425.81;5014569;28;20260;-78
2024/02/25 05:31:39;;;;;;;2.33;2.10;;;;;;;1.92;80.48;94420.69;5020879;28;20277;-78
2024/02/25 05:34:04;;;;;;;2.53;1.63;;;;;;;2.00;79.86;94415.78;5018603;28;20239;-78
2024/02/25 05:36:30;;;;;;;2.13;1.70;;;;;;;2.07;79.42;94413.53;5011646;28;20186;-78
2024/02/25 05:38:55;;;;;;;2.53;1.80;;;;;;;1.98;79.12;94421.00;5021580;28;20187;-78
2024/02/25 05:41:20;;;;;;;2.00;1.60;;;;;;;2.04;79.03;94418.91;5017590;28;20199;-78
2024/02/25 05:43:46;;;;;;;2.57;1.97;;;;;;;2.08;78.17;94415.16;5017289;28;20222;-78
2024/02/25 05:46:12;;;;;;;2.07;1.60;;;;;;;2.08;78.82;94417.72;5021148;28;20906;-78
2024/02/25 05:48:37;;;;;;;1.90;1.30;;;;;;;2.08;78.40;94415.97;5021500;28;20190;-78
2024/02/25 05:51:04;;;;;;;2.10;1.50;;;;;;;2.21;77.74;94415.81;5000259;28;20183;-78
2024/02/25 05:53:29;;;;;;;2.03;1.63;;;;;;;2.25;76.92;94423.09;5005382;28;20294;-78
2024/02/25 05:55:55;;;;;;;2.33;1.40;;;;;;;2.15;77.32;94414.53;5022124;28;20274;-78
2024/02/25 05:58:20;;;;;;;1.70;1.60;;;;;;;2.12;76.69;94407.13;5009889;28;20215;-78
2024/02/25 06:00:45;;;;;;;3.47;1.73;;;;;;;2.05;78.04;94415.41;5017350;28;20195;-78
2024/02/25 06:03:11;;;;;;;1.90;1.70;;;;;;;1.99;76.75;94422.63;5019778;28;20179;-78
2024/02/25 06:05:36;;;;;;;2.10;1.90;;;;;;;1.94;77.09;94422.22;5003347;28;20270;-78
2024/02/25 06:08:01;;;;;;;3.47;1.97;;;;;;;1.81;77.74;94423.31;5007693;28;20184;-78
2024/02/25 06:10:27;;;;;;;2.60;2.00;;;;;;;1.87;77.67;94421.06;5021366;28;20222;-77
2024/02/25 06:12:52;;;;;;;2.27;1.90;;;;;;;1.72;77.90;94432.53;5021911;28;20178;-78
2024/02/25 06:15:18;;;;;;;3.80;2.00;;;;;;;1.70;78.36;94426.72;5016581;28;20315;-78
2024/02/25 06:17:44;;;;;;;2.20;2.00;;;;;;;1.68;78.89;94428.59;5012908;28;20187;-78
2024/02/25 06:20:10;;;;;;;3.03;1.90;;;;;;;1.70;78.25;94427.53;5014434;28;20655;-78
2024/02/25 06:22:40;;;;;;;2.10;1.70;;;;;;;1.65;78.99;94436.50;5019974;28;20183;-78
2024/02/25 06:25:06;;;;;;;2.00;1.73;;;;;;;1.81;78.82;94446.34;5019581;28;20644;-78
2024/02/25 06:27:32;;;;;;;3.03;1.63;;;;;;;1.84;78.92;94449.44;5021770;28;20567;-78
2024/02/25 06:29:57;;;;;;;2.30;1.63;;;;;;;1.92;77.71;94451.41;5004406;28;20202;-78
2024/02/25 06:32:22;;;;;;;2.67;1.70;;;;;;;1.78;78.19;94455.09;5003336;28;20194;-78
2024/02/25 06:34:48;;;;;;;2.77;1.73;;;;;;;1.97;78.00;94457.00;5019715;28;20265;-78
2024/02/25 06:37:14;;;;;;;2.90;1.73;;;;;;;1.95;76.62;94462.25;5022989;28;20202;-77
2024/02/25 06:39:40;;;;;;;4.50;2.17;;;;;;;1.95;76.83;94457.13;5019826;28;20770;-79
2024/02/25 06:42:05;;;;;;;1.70;1.47;;;;;;;1.90;77.28;94464.34;5015780;28;20188;-78
2024/02/25 06:44:31;;;;;;;1.30;1.10;;;;;;;2.01;77.62;94462.66;5024170;28;20713;-78
2024/02/25 06:46:56;;;;;;;2.97;1.30;;;;;;;1.88;77.87;94471.34;5004864;28;20200;-78
2024/02/25 06:49:22;;;;;;;1.43;1.13;;;;;;;1.97;76.98;94465.47;5003947;28;20216;-78
2024/02/25 06:51:48;;;;;;;3.33;1.40;;;;;;;2.08;76.88;94467.19;5021393;28;20183;-78
2024/02/25 06:54:13;;;;;;;1.90;1.10;;;;;;;2.29;76.32;94472.31;5021085;28;20317;-78
2024/02/25 06:56:38;;;;;;;2.00;1.47;;;;;;;2.28;76.13;94470.69;5019896;28;20215;-77
2024/02/25 06:59:03;;;;;;;1.47;1.30;;;;;;;2.25;76.38;94469.19;5011985;28;20264;-78
2024/02/25 07:01:29;;;;;;;1.57;1.37;;;;;;;2.19;76.36;94458.63;5017929;28;20220;-78
2024/02/25 07:03:54;;;;;;;1.30;1.13;;;;;;;2.37;76.58;94466.56;5021439;28;20209;-78
2024/02/25 07:06:19;;;;;;;2.30;1.20;;;;;;;2.39;75.52;94465.53;5002857;28;20199;-77
2024/02/25 07:08:45;;;;;;;2.70;1.37;;;;;;;2.46;75.48;94466.66;5006813;28;20195;-78
2024/02/25 07:11:17;;;;;;;1.47;1.17;;;;;;;2.63;75.48;94464.47;5006644;28;20190;-78
2024/02/25 07:13:43;;;;;;;1.37;1.27;;;;;;;2.73;75.99;94463.56;5013321;28;20206;-78
2024/02/25 07:16:09;;;;;;;2.53;1.27;;;;;;;2.82;75.56;94467.13;5011513;28;20546;-78
2024/02/25 07:18:34;;;;;;;1.80;1.47;;;;;;;2.85;75.10;94469.44;5006821;28;20199;-78
2024/02/25 07:21:00;;;;;;;2.93;1.60;;;;;;;3.15;74.58;94460.13;5018748;28;20298;-78
2024/02/25 07:23:25;;;;;;;3.27;1.70;;;;;;;3.32;73.93;94462.09;5018231;28;20207;-78
2024/02/25 07:25:50;;;;;;;1.60;1.50;;;;;;;3.34;74.25;94462.75;5014971;28;20245;-78
2024/02/25 07:28:16;;;;;;;2.27;1.33;;;;;;;3.34;74.37;94463.56;5017847;28;20561;-78
2024/02/25 07:30:41;;;;;;;1.77;1.40;;;;;;;3.27;75.39;94459.09;5020725;28;20198;-78
2024/02/25 07:33:07;;;;;;;1.30;1.20;;;;;;;3.43;74.80;94467.13;5000569;28;20715;-78
2024/02/25 07:35:32;;;;;;;1.63;1.27;;;;;;;3.50;74.45;94473.34;5005981;28;20215;-79
2024/02/25 07:37:59;;;;;;;3.97;1.57;;;;;;;3.58;74.03;94465.00;5004219;28;20194;-78
2024/02/25 07:40:24;;;;;;;2.23;1.33;;;;;;;3.62;74.87;94474.88;5013925;28;20229;-77
2024/02/25 07:42:49;;;;;;;1.53;1.43;;;;;;;3.67;74.29;94477.84;5004259;28;20172;-78
2024/02/25 07:45:15;;;;;;;1.20;1.10;;;;;;;3.52;75.29;94486.84;4999265;28;20245;-78
2024/02/25 07:47:40;;;;;;;1.80;1.40;;;;;;;3.74;74.76;94474.78;5018015;28;20265;-78
2024/02/25 07:50:06;;;;;;;1.87;1.50;;;;;;;3.75;74.98;94478.97;5020618;28;20221;-78
2024/02/25 07:52:32;;;;;;;1.43;1.00;;;;;;;3.71;74.99;94468.16;5018841;28;20194;-78
2024/02/25 07:54:57;;;;;;;2.37;1.23;;;;;;;3.87;74.93;94470.19;5002064;28;20237;-78
2024/02/25 07:57:22;;;;;;;1.83;1.30;;;;;;;3.88;74.51;94464.09;5004081;28;20716;-77
2024/02/25 07:59:48;;;;;;;2.57;1.00;;;;;;;3.87;75.01;94465.03;5016825;28;20179;-78
2024/02/25 08:02:13;;;;;;;1.00;0.87;;;;;;;4.01;75.07;94461.28;5015796;28;20195;-77
2024/02/25 08:04:38;;;;;;;1.20;1.10;;;;;;;3.97;75.81;94463.28;5009445;28;20281;-77
2024/02/25 08:07:07;;;;;;;2.03;1.03;;;;;;;4.16;75.14;94465.91;5015022;28;20686;-78
2024/02/25 08:09:32;;;;;;;1.27;1.17;;;;;;;4.26;74.78;94461.56;5003957;28;20193;-78
2024/02/25 08:11:58;;;;;;;2.03;1.00;;;;;;;4.18;74.95;94466.56;5009140;28;20190;-78
2024/02/25 08:14:23;;;;;;;1.73;1.00;;;;;;;4.29;74.94;94464.81;5013856;28;20223;-78
2024/02/25 08:16:49;;;;;;;0.93;0.83;;;;;;;4.31;75.22;94473.19;4998050;28;20222;-78
2024/02/25 08:19:14;;;;;;;1.53;1.03;;;;;;;4.31;75.42;94463.72;5019510;28;20194;-79
2024/02/25 08:21:40;;;;;;;1.57;0.90;;;;;;;4.46;74.71;94471.84;5008994;28;20289;-78
2024/02/25 08:24:06;;;;;;;9.37;4.27;;;;;;;4.50;74.24;94461.13;5004873;28;20204;-78
2024/02/25 08:26:32;;;;;;;2.37;2.00;;;;;;;4.59;74.14;94453.53;5013829;28;20697;-79
2024/02/25 08:28:57;;;;;;;3.60;2.30;;;;;;;4.89;73.34;94458.50;5019312;28;20264;-78
2024/02/25 08:31:23;;;;;;;1.10;1.00;;;;;;;4.70;73.89;94456.78;5015533;28;20207;-78
2024/02/25 08:33:48;;;;;;;1.90;1.60;;;;;;;4.88;73.32;94456.88;5015400;28;20203;-78
2024/02/25 08:36:13;;;;;;;1.13;0.90;;;;;;;4.93;73.43;94464.97;5013642;28;20267;-78
2024/02/25 08:38:40;;;;;;;1.90;1.37;;;;;;;5.08;72.88;94450.72;5008281;28;20176;-79
2024/02/25 08:41:06;;;;;;;2.03;0.93;;;;;;;5.02;73.50;94455.59;5013268;28;20280;-78
2024/02/25 08:43:31;;;;;;;1.50;1.40;;;;;;;4.95;73.25;94450.22;5000822;28;20696;-78
2024/02/25 08:45:56;;;;;;;1.03;0.83;;;;;;;5.04;73.24;94446.81;5019029;28;20186;-77
2024/02/25 08:48:21;;;;;;;1.27;0.80;;;;;;;5.32;72.35;94455.38;4999045;28;20193;-78
2024/02/25 08:50:47;;;;;;;0.80;0.80;;;;;;;5.30;71.99;94459.84;5016987;28;20187;-78
2024/02/25 08:53:12;;;;;;;0.80;0.77;;;;;;;5.49;71.72;94447.84;5002870;28;20175;-78
2024/02/25 08:55:38;;;;;;;0.97;0.80;;;;;;;5.60;71.15;94457.94;5020978;28;20207;-77
2024/02/25 08:58:03;;;;;;;0.80;0.80;;;;;;;5.59;71.52;94446.84;5019219;28;20320;-77
2024/02/25 09:00:29;;;;;;;2.53;1.20;;;;;;;5.53;72.22;94452.56;5018223;28;20178;-78
2024/02/25 09:02:55;;;;;;;1.13;0.70;;;;;;;5.75;71.14;94450.56;5019319;28;20234;-77
2024/02/25 09:05:20;;;;;;;1.43;0.93;;;;;;;5.80;71.47;94458.63;5018575;28;20232;-78
2024/02/25 09:07:45;;;;;;;2.10;1.13;;;;;;;5.55;70.81;94462.69;5018528;28;20218;-78
2024/02/25 09:10:13;;;;;;;1.93;1.00;;;;;;;5.88;70.80;94456.97;4999922;28;20201;-78
2024/02/25 09:12:39;;;;;;;1.10;1.00;;;;;;;6.03;69.99;94453.91;5014251;28;20210;-78
2024/02/25 09:15:06;;;;;;;0.70;0.67;;;;;;;6.59;68.76;94463.91;5019623;28;20667;-78
2024/02/25 09:17:31;;;;;;;2.23;1.00;;;;;;;6.41;68.55;94461.34;5016347;28;20186;-78
2024/02/25 09:19:56;;;;;;;2.33;1.10;;;;;;;6.82;67.66;94461.66;5022070;28;20191;-78
2024/02/25 09:22:22;;;;;;;0.83;0.83;;;;;;;6.93;66.70;94456.25;5017392;28;20187;-78
2024/02/25 09:24:47;;;;;;;1.27;0.93;;;;;;;7.09;65.85;94461.50;5018606;28;20209;-76
2024/02/25 09:27:13;;;;;;;0.53;0.53;;;;;;;7.01;65.64;94451.13;5016701;28;20557;-76
2024/02/25 09:29:41;;;;;;;1.60;1.23;;;;;;;6.89;66.04;94454.09;5018459;28;20197;-78
2024/02/25 09:32:07;;;;;;;1.40;1.10;;;;;;;7.02;66.19;94452.75;5006447;28;21016;-78
2024/02/25 09:34:32;;;;;;;2.13;1.00;;;;;;;7.16;65.01;94446.22;5005526;28;20213;-78
2024/02/25 09:36:57;;;;;;;1.40;0.97;;;;;;;6.89;65.64;94449.78;5017520;28;20199;-77
2024/02/25 09:39:23;;;;;;;1.23;1.00;;;;;;;6.65;65.22;94450.41;5004498;28;20198;-78
2024/02/25 09:41:51;;;;;;;0.83;0.83;;;;;;;6.88;64.81;94440.41;5015265;28;20202;-78
2024/02/25 09:44:25;;;;;;;3.40;1.00;;;;;;;6.87;64.54;94445.72;5008544;28;20577;-77
2024/02/25 09:46:54;;;;;;;1.60;1.10;;;;;;;6.80;64.93;94440.34;5021174;28;20248;-78
2024/02/25 09:49:21;;;;;;;1.93;1.50;;;;;;;7.03;65.04;94435.50;5007091;28;20270;-78
2024/02/25 09:51:49;;;;;;;1.30;1.10;;;;;;;6.93;65.35;94445.94;5002329;28;20236;-77
2024/02/25 09:54:15;;;;;;;1.73;1.50;;;;;;;7.13;64.91;94437.97;5009039;28;20676;-78
2024/02/25 09:56:42;;;;;;;2.80;1.80;;;;;;;7.09;65.11;94435.69;5015528;28;20181;-78
2024/02/25 09:59:08;;;;;;;1.90;1.40;;;;;;;7.30;64.37;94434.50;5017114;28;20524;-78
2024/02/25 10:01:34;;;;;;;2.67;1.17;;;;;;;7.24;64.18;94428.16;5016252;28;20185;-78
2024/02/25 10:03:59;;;;;;;1.60;1.00;;;;;;;7.34;63.44;94434.03;5009503;28;20226;-78
2024/02/25 10:06:25;;;;;;;3.13;1.70;;;;;;;7.44;64.08;94430.53;5025358;28;20191;-78
2024/02/25 10:08:53;;;;;;;2.67;1.30;;;;;;;7.49;63.48;94423.91;5006678;28;20183;-78
2024/02/25 10:11:19;;;;;;;1.83;1.50;;;;;;;7.50;63.62;94427.31;5003497;28;20199;-78
2024/02/25 10:13:46;;;;;;;1.23;1.10;;;;;;;7.34;63.40;94428.88;5020184;28;20211;-78
2024/02/25 10:16:16;;;;;;;2.13;1.70;;;;;;;7.22;63.84;94424.94;5013521;28;20179;-77
2024/02/25 10:18:42;;;;;;;1.00;0.73;;;;;;;7.42;64.06;94420.38;5007575;28;20625;-78
2024/02/25 10:21:07;;;;;;;1.07;0.70;;;;;;;7.32;63.51;94417.88;5010910;28;20644;-76
2024/02/25 10:23:36;;;;;;;1.87;0.70;;;;;;;7.37;64.01;94422.59;5019674;28;20261;-78
2024/02/25 10:26:14;;;;;;;1.47;0.80;;;;;;;7.50;63.26;94415.19;5017783;28;20183;-77
2024/02/25 10:28:41;;;;;;;1.27;0.80;;;;;;;7.62;63.32;94420.91;5010005;28;20195;-77
2024/02/25 10:31:08;;;;;;;1.50;0.70;;;;;;;7.32;63.14;94412.72;5019964;28;20191;-78
2024/02/25 10:33:33;;;;;;;1.87;0.60;;;;;;;7.35;62.25;94406.44;5020010;28;20214;-78
2024/02/25 10:36:09;;;;;;;1.30;0.67;;;;;;;7.74;62.51;94416.25;5011948;28;20245;-78
2024/02/25 10:38:36;;;;;;;0.70;0.70;;;;;;;7.54;62.96;94405.38;5022639;28;20237;-78
2024/02/25 10:41:02;;;;;;;1.93;0.67;;;;;;;7.75;62.40;94404.94;5021820;28;20675;-78
2024/02/25 10:43:27;;;;;;;1.17;0.70;;;;;;;7.76;62.08;94407.38;5020688;28;20257;-77
2024/02/25 10:45:54;;;;;;;0.80;0.50;;;;;;;7.69;61.37;94406.41;5003230;28;20187;-78
2024/02/25 10:48:21;;;;;;;0.60;0.40;;;;;;;8.08;60.53;94404.03;5018194;28;20660;-78
2024/02/25 10:50:46;;;;;;;0.53;0.53;;;;;;;8.10;59.72;94402.09;5005585;28;20186;-78
2024/02/25 10:53:13;;;;;;;1.33;0.40;;;;;;;8.05;58.07;94401.78;5001604;28;20653;-78
2024/02/25 10:55:38;;;;;;;1.73;0.70;;;;;;;8.31;57.39;94390.50;5004810;28;20215;-77
2024/02/25 10:58:05;;;;;;;0.60;0.40;;;;;;;8.02;58.38;94393.50;5012142;28;20191;-78
2024/02/25 11:00:31;;;;;;;0.57;0.50;;;;;;;7.91;58.73;94399.81;5004001;28;20205;-78
2024/02/25 11:02:57;;;;;;;0.50;0.50;;;;;;;8.20;57.39;94394.97;5020081;28;20218;-77
2024/02/25 11:05:22;;;;;;;0.60;0.30;;;;;;;8.08;57.22;94404.03;5000995;28;20218;-78
2024/02/25 11:07:48;;;;;;;0.70;0.47;;;;;;;8.11;54.76;94388.19;4999899;28;20195;-77
2024/02/25 11:10:20;;;;;;;1.40;0.53;;;;;;;8.37;55.51;94392.44;5018831;28;20195;-78
2024/02/25 11:12:45;;;;;;;0.97;0.30;;;;;;;8.46;55.28;94384.50;5019722;28;20232;-79
2024/02/25 11:15:18;;;;;;;0.47;0.30;;;;;;;7.71;54.25;94380.41;5017761;28;20203;-78
2024/02/25 11:17:47;;;;;;;0.33;0.30;;;;;;;8.02;53.30;94381.41;5016766;28;20657;-78
2024/02/25 11:20:19;;;;;;;1.07;0.50;;;;;;;8.21;53.92;94377.69;5018439;28;20230;-77
2024/02/25 11:22:46;;;;;;;0.40;0.40;;;;;;;8.14;53.76;94377.53;5018618;28;20261;-78
2024/02/25 11:25:33;;;;;;;0.60;0.43;;;;;;;8.31;52.82;94373.19;5019174;28;20199;-77
2024/02/25 11:28:12;;;;;;;1.83;0.47;;;;;;;8.48;52.77;94371.41;5016205;28;20185;-77
2024/02/25 11:30:45;;;;;;;0.50;0.50;;;;;;;8.90;52.02;94360.00;5020334;28;20186;-77
2024/02/25 11:33:23;;;;;;;0.63;0.40;;;;;;;9.34;50.46;94355.97;5016659;28;20545;-77
2024/02/25 11:35:52;;;;;;;1.73;1.00;;;;;;;9.78;50.08;94352.81;5018610;28;20577;-76